Time;durP1;ratioP1;P1;durP2;ratioP2;P2;SDS_P1;SDS_P2;PMS_P1;PMS_P2;Temp;Humidity;BMP_temperature;BMP_pressure;BME280_temperature;BME280_humidity;BME280_pressure;Samples;Min_cycle;Max_cycle;Signal;HPM_P1;HPM_P2
2023/11/09 00:00:09;;;;;;;15.33;4.73;;;;;;;;;;5033554;28;20196;-83
2023/11/09 00:02:36;;;;;;;17.47;4.83;;;;;;;;;;5033437;28;20988;-83
2023/11/09 00:05:04;;;;;;;14.53;5.10;;;;;;;;;;5033545;28;20669;-83
2023/11/09 00:07:32;;;;;;;16.13;5.80;;;;;;;;;;5033161;28;20204;-81
2023/11/09 00:10:02;;;;;;;18.50;6.13;;;;;;;;;;5033426;28;20200;-82
2023/11/09 00:12:30;;;;;;;18.93;5.93;;;;;;;;;;5033624;28;20288;-82
2023/11/09 00:14:57;;;;;;;15.27;5.37;;;;;;;;;;5033224;28;20200;-82
2023/11/09 00:17:24;;;;;;;16.00;4.90;;;;;;;;;;5033110;28;20295;-83
2023/11/09 00:19:51;;;;;;;16.63;5.00;;;;;;;;;;5033445;28;20701;-82
2023/11/09 00:22:19;;;;;;;18.37;5.17;;;;;;;;;;5032613;28;20201;-83
2023/11/09 00:24:47;;;;;;;16.13;5.50;;;;;;;;;;5033566;28;20196;-82
2023/11/09 00:27:20;;;;;;;21.47;5.50;;;;;;;;;;5033308;28;20205;-83
2023/11/09 00:29:47;;;;;;;15.90;5.23;;;;;;;;;;5032908;28;20289;-83
2023/11/09 00:32:16;;;;;;;18.63;6.27;;;;;;;;;;5033139;28;20235;-83
2023/11/09 00:34:43;;;;;;;15.57;5.10;;;;;;;;;;5042462;28;20192;-83
2023/11/09 00:37:10;;;;;;;23.97;5.80;;;;;;;;;;5053352;28;20338;-82
2023/11/09 00:39:38;;;;;;;16.43;4.53;;;;;;;;;;5052431;28;20196;-82
2023/11/09 00:42:06;;;;;;;18.83;5.33;;;;;;;;;;5053030;28;20200;-82
2023/11/09 00:44:34;;;;;;;18.00;4.87;;;;;;;;;;5053057;28;20231;-82
2023/11/09 00:47:03;;;;;;;14.43;4.47;;;;;;;;;;5052621;28;20231;-83
2023/11/09 00:49:30;;;;;;;15.83;4.93;;;;;;;;;;5052470;28;20262;-82
2023/11/09 00:51:57;;;;;;;13.83;4.73;;;;;;;;;;5052638;28;20283;-82
2023/11/09 00:54:25;;;;;;;18.17;5.33;;;;;;;;;;5053020;28;20196;-83
2023/11/09 00:56:53;;;;;;;21.43;4.67;;;;;;;;;;5052382;28;20263;-82
2023/11/09 00:59:20;;;;;;;18.40;4.47;;;;;;;;;;5052293;28;20206;-82
2023/11/09 01:01:49;;;;;;;18.10;4.27;;;;;;;;;;5052655;28;20206;-82
2023/11/09 01:04:17;;;;;;;17.70;4.67;;;;;;;;;;5052130;28;20200;-83
2023/11/09 01:06:44;;;;;;;12.77;4.10;;;;;;;;;;5052824;28;20194;-83
2023/11/09 01:09:11;;;;;;;24.47;4.70;;;;;;;;;;5052315;28;20215;-82
2023/11/09 01:11:40;;;;;;;15.53;4.60;;;;;;;;;;5051865;28;20223;-82
2023/11/09 01:14:07;;;;;;;17.90;4.20;;;;;;;;;;5052765;28;20199;-83
2023/11/09 01:16:34;;;;;;;18.97;4.50;;;;;;;;;;5051967;28;20215;-83
2023/11/09 01:19:03;;;;;;;17.87;4.60;;;;;;;;;;5051698;28;20195;-83
2023/11/09 01:21:31;;;;;;;17.63;4.33;;;;;;;;;;5052106;28;20195;-82
2023/11/09 01:23:58;;;;;;;18.10;4.87;;;;;;;;;;5052031;28;20733;-83
2023/11/09 01:26:25;;;;;;;17.70;4.77;;;;;;;;;;5052244;28;20196;-83
2023/11/09 01:28:53;;;;;;;22.13;5.17;;;;;;;;;;5052088;28;20291;-83
2023/11/09 01:31:21;;;;;;;18.77;5.07;;;;;;;;;;5051792;28;20277;-82
2023/11/09 01:33:48;;;;;;;20.40;4.70;;;;;;;;;;5049311;28;20245;-83
2023/11/09 01:36:17;;;;;;;17.10;4.97;;;;;;;;;;5032008;28;20235;-83
2023/11/09 01:38:44;;;;;;;27.47;5.07;;;;;;;;;;5032062;28;20288;-83
2023/11/09 01:41:11;;;;;;;14.67;5.00;;;;;;;;;;5031721;28;20288;-83
2023/11/09 01:43:39;;;;;;;17.23;5.40;;;;;;;;;;5031823;28;20292;-83
2023/11/09 01:46:07;;;;;;;21.63;5.77;;;;;;;;;;5031242;28;20564;-82
2023/11/09 01:48:35;;;;;;;20.20;5.30;;;;;;;;;;5031508;28;20201;-83
2023/11/09 01:51:03;;;;;;;20.17;5.03;;;;;;;;;;5031883;28;20200;-82
2023/11/09 01:53:32;;;;;;;15.07;4.70;;;;;;;;;;5031544;28;20662;-82
2023/11/09 01:55:59;;;;;;;13.53;4.77;;;;;;;;;;5031704;28;20250;-82
2023/11/09 01:58:26;;;;;;;20.10;4.50;;;;;;;;;;5031698;28;20242;-82
2023/11/09 02:00:55;;;;;;;16.63;4.20;;;;;;;;;;5031367;28;20276;-81
2023/11/09 02:03:22;;;;;;;23.90;4.83;;;;;;;;;;5031347;28;20636;-82
2023/11/09 02:05:50;;;;;;;17.37;4.50;;;;;;;;;;5031841;28;20299;-83
2023/11/09 02:08:18;;;;;;;13.83;4.20;;;;;;;;;;5031248;28;20196;-83
2023/11/09 02:10:47;;;;;;;17.90;4.50;;;;;;;;;;5031277;28;20192;-83
2023/11/09 02:13:14;;;;;;;17.43;4.87;;;;;;;;;;5031761;28;20220;-83
2023/11/09 02:15:41;;;;;;;19.67;4.57;;;;;;;;;;5031427;28;20223;-82
2023/11/09 02:18:08;;;;;;;19.83;4.40;;;;;;;;;;5031053;28;20276;-82
2023/11/09 02:20:36;;;;;;;22.27;4.30;;;;;;;;;;5031376;28;20283;-82
2023/11/09 02:23:03;;;;;;;18.77;4.47;;;;;;;;;;5033055;28;20224;-83
2023/11/09 02:25:32;;;;;;;17.23;4.60;;;;;;;;;;5035238;28;20228;-82
2023/11/09 02:27:59;;;;;;;17.30;4.20;;;;;;;;;;5035315;28;20688;-82
2023/11/09 02:30:26;;;;;;;17.90;4.23;;;;;;;;;;5034341;28;20663;-82
2023/11/09 02:32:53;;;;;;;17.70;4.50;;;;;;;;;;5035580;28;20203;-82
2023/11/09 02:35:21;;;;;;;25.17;4.70;;;;;;;;;;5032313;28;20236;-82
2023/11/09 02:37:48;;;;;;;20.33;4.90;;;;;;;;;;5025092;28;20732;-82
2023/11/09 02:40:15;;;;;;;16.77;4.83;;;;;;;;;;5015008;28;20288;-83
2023/11/09 02:42:44;;;;;;;19.23;4.87;;;;;;;;;;5015351;28;20288;-82
2023/11/09 02:45:11;;;;;;;19.03;4.47;;;;;;;;;;5015289;28;20636;-82
2023/11/09 02:47:38;;;;;;;17.83;4.40;;;;;;;;;;5015497;28;20197;-82
2023/11/09 02:50:06;;;;;;;18.43;4.50;;;;;;;;;;5015047;28;20684;-82
2023/11/09 02:52:33;;;;;;;26.37;5.20;;;;;;;;;;5015125;28;20224;-82
2023/11/09 02:55:00;;;;;;;21.20;6.03;;;;;;;;;;5015446;28;20284;-82
2023/11/09 02:57:29;;;;;;;20.07;6.20;;;;;;;;;;5014876;28;20263;-82
2023/11/09 02:59:59;;;;;;;20.13;6.07;;;;;;;;;;5014624;28;20205;-82
2023/11/09 03:02:26;;;;;;;23.43;6.57;;;;;;;;;;5014613;28;20243;-82
2023/11/09 03:04:53;;;;;;;19.87;5.80;;;;;;;;;;5015071;28;20201;-82
2023/11/09 03:07:20;;;;;;;21.67;5.57;;;;;;;;;;5014738;28;20229;-82
2023/11/09 03:09:48;;;;;;;15.97;5.43;;;;;;;;;;5015251;28;20300;-82
2023/11/09 03:12:15;;;;;;;20.43;5.03;;;;;;;;;;5014663;28;20201;-82
2023/11/09 03:14:42;;;;;;;24.40;5.70;;;;;;;;;;5014569;28;20201;-82
2023/11/09 03:17:12;;;;;;;16.97;4.47;;;;;;;;;;5014943;28;20315;-83
2023/11/09 03:19:40;;;;;;;21.60;5.17;;;;;;;;;;5014607;28;20202;-82
2023/11/09 03:22:08;;;;;;;19.33;4.93;;;;;;;;;;5014836;28;20197;-82
2023/11/09 03:24:36;;;;;;;17.13;4.63;;;;;;;;;;5014221;28;20684;-82
2023/11/09 03:27:05;;;;;;;18.03;4.63;;;;;;;;;;5014787;28;20263;-82
2023/11/09 03:29:33;;;;;;;19.30;4.57;;;;;;;;;;5014762;28;20670;-82
2023/11/09 03:32:00;;;;;;;19.10;4.90;;;;;;;;;;5014532;28;20225;-83
2023/11/09 03:34:29;;;;;;;20.33;5.33;;;;;;;;;;5021001;28;20192;-83
2023/11/09 03:36:56;;;;;;;17.70;5.10;;;;;;;;;;5034464;28;20645;-82
2023/11/09 03:39:24;;;;;;;23.20;5.03;;;;;;;;;;5034438;28;20254;-83
2023/11/09 03:41:51;;;;;;;21.63;4.87;;;;;;;;;;5034003;28;21076;-82
2023/11/09 03:44:18;;;;;;;17.23;4.87;;;;;;;;;;5033666;28;20299;-82
2023/11/09 03:46:45;;;;;;;18.83;4.70;;;;;;;;;;5034182;28;20200;-83
2023/11/09 03:49:12;;;;;;;24.20;5.30;;;;;;;;;;5034094;28;20292;-82
2023/11/09 03:51:41;;;;;;;18.37;4.50;;;;;;;;;;5034014;28;20287;-82
2023/11/09 03:54:08;;;;;;;19.40;5.67;;;;;;;;;;5033927;28;20243;-83
2023/11/09 03:56:36;;;;;;;24.60;5.63;;;;;;;;;;5034052;28;20297;-83
2023/11/09 03:59:04;;;;;;;23.80;4.97;;;;;;;;;;5033027;28;20240;-82
2023/11/09 04:01:32;;;;;;;22.73;5.23;;;;;;;;;;5034156;28;20291;-82
2023/11/09 04:03:59;;;;;;;18.47;5.00;;;;;;;;;;5033623;28;20601;-82
2023/11/09 04:06:26;;;;;;;19.20;4.57;;;;;;;;;;5033602;28;20196;-83
2023/11/09 04:08:55;;;;;;;23.30;5.30;;;;;;;;;;5033666;28;20287;-82
2023/11/09 04:11:22;;;;;;;19.53;4.40;;;;;;;;;;5033634;28;20283;-82
2023/11/09 04:13:49;;;;;;;18.57;4.97;;;;;;;;;;5033352;28;20291;-82
2023/11/09 04:16:16;;;;;;;18.97;4.87;;;;;;;;;;5033691;28;20197;-83
2023/11/09 04:18:43;;;;;;;23.47;5.60;;;;;;;;;;5033274;28;20287;-83
2023/11/09 04:21:11;;;;;;;19.30;4.80;;;;;;;;;;5033301;28;20204;-83
2023/11/09 04:23:38;;;;;;;18.87;4.93;;;;;;;;;;5033392;28;20197;-82
2023/11/09 04:26:08;;;;;;;19.20;4.77;;;;;;;;;;5033110;28;20630;-83
2023/11/09 04:28:35;;;;;;;25.40;5.73;;;;;;;;;;5032672;28;20211;-82
2023/11/09 04:31:04;;;;;;;22.17;5.10;;;;;;;;;;5032985;28;20736;-83
2023/11/09 04:33:32;;;;;;;18.10;4.37;;;;;;;;;;5033586;28;20193;-82
2023/11/09 04:36:00;;;;;;;17.50;4.00;;;;;;;;;;5033188;28;20200;-82
2023/11/09 04:38:30;;;;;;;20.27;3.87;;;;;;;;;;5032254;28;20228;-82
2023/11/09 04:41:01;;;;;;;20.53;4.27;;;;;;;;;;5032476;28;20719;-81
2023/11/09 04:43:30;;;;;;;18.37;3.97;;;;;;;;;;5033567;28;20246;-82
2023/11/09 04:46:05;;;;;;;21.90;4.10;;;;;;;;;;5031913;28;20287;-83
2023/11/09 04:48:34;;;;;;;17.77;4.00;;;;;;;;;;5032550;28;20204;-82
2023/11/09 04:51:04;;;;;;;21.23;4.77;;;;;;;;;;5032853;28;20619;-82
2023/11/09 04:53:31;;;;;;;18.10;4.03;;;;;;;;;;5032734;28;20200;-82
2023/11/09 04:56:04;;;;;;;17.80;4.33;;;;;;;;;;5032285;28;20692;-83
2023/11/09 04:58:47;;;;;;;18.53;4.07;;;;;;;;;;5032467;28;20711;-81
2023/11/09 05:06:51;;;;;;;24.83;4.63;;;;;;;;;;5031987;28;20747;-84
2023/11/09 05:09:19;;;;;;;19.97;4.40;;;;;;;;;;5033108;28;20200;-82
2023/11/09 05:11:46;;;;;;;20.70;4.73;;;;;;;;;;5047029;28;20284;-83
2023/11/09 05:14:15;;;;;;;26.27;5.20;;;;;;;;;;5032301;28;20298;-82
2023/11/09 05:16:43;;;;;;;19.47;5.10;;;;;;;;;;5032310;28;20314;-81
2023/11/09 05:19:10;;;;;;;20.20;5.13;;;;;;;;;;5032583;28;20212;-82
2023/11/09 05:21:38;;;;;;;26.37;5.93;;;;;;;;;;5032121;28;20247;-82
2023/11/09 05:24:05;;;;;;;20.93;6.33;;;;;;;;;;5032261;28;20207;-82
2023/11/09 05:26:34;;;;;;;18.57;5.40;;;;;;;;;;5031910;28;20241;-82
2023/11/09 05:29:04;;;;;;;18.93;5.50;;;;;;;;;;5031789;28;20279;-81
2023/11/09 05:31:34;;;;;;;20.77;5.10;;;;;;;;;;5032034;28;20790;-81
2023/11/09 05:34:02;;;;;;;21.63;3.73;;;;;;;;;;5032055;28;20218;-82
2023/11/09 05:36:34;;;;;;;17.83;4.17;;;;;;;;;;5031593;28;20200;-82
2023/11/09 05:39:01;;;;;;;17.30;4.20;;;;;;;;;;5031507;28;20203;-82
2023/11/09 05:41:29;;;;;;;19.07;4.40;;;;;;;;;;5032006;28;20323;-81
2023/11/09 05:43:57;;;;;;;20.50;3.93;;;;;;;;;;5031427;28;20198;-81
2023/11/09 05:46:24;;;;;;;24.70;4.57;;;;;;;;;;5031924;28;20196;-83
2023/11/09 05:48:53;;;;;;;21.90;4.40;;;;;;;;;;5031627;28;20677;-82
2023/11/09 05:51:23;;;;;;;19.97;3.67;;;;;;;;;;5031776;28;20228;-81
2023/11/09 05:53:50;;;;;;;21.73;4.47;;;;;;;;;;5031409;28;20255;-82
2023/11/09 05:56:17;;;;;;;24.73;4.83;;;;;;;;;;5031875;28;20235;-81
2023/11/09 05:58:45;;;;;;;20.80;4.53;;;;;;;;;;5031529;28;20739;-82
2023/11/09 06:01:13;;;;;;;24.47;4.63;;;;;;;;;;5032316;28;20197;-82
2023/11/09 06:03:41;;;;;;;20.20;4.40;;;;;;;;;;5032962;28;20197;-82
2023/11/09 06:06:10;;;;;;;18.83;4.07;;;;;;;;;;5031462;28;20605;-81
2023/11/09 06:08:38;;;;;;;23.63;4.10;;;;;;;;;;5031170;28;20196;-83
2023/11/09 06:11:05;;;;;;;17.53;3.73;;;;;;;;;;5032206;28;20279;-83
2023/11/09 06:13:33;;;;;;;19.50;4.10;;;;;;;;;;5031912;28;20207;-81
2023/11/09 06:16:02;;;;;;;22.47;4.27;;;;;;;;;;5031480;28;20664;-81
2023/11/09 06:18:29;;;;;;;21.20;4.90;;;;;;;;;;5031396;28;20259;-80
2023/11/09 06:20:57;;;;;;;18.20;4.63;;;;;;;;;;5031571;28;20235;-80
2023/11/09 06:23:27;;;;;;;16.17;4.00;;;;;;;;;;5031920;28;20196;-80
2023/11/09 06:25:55;;;;;;;20.00;4.97;;;;;;;;;;5031519;28;20200;-82
2023/11/09 06:28:22;;;;;;;21.47;4.17;;;;;;;;;;5031409;28;20204;-80
2023/11/09 06:30:50;;;;;;;23.13;4.37;;;;;;;;;;5031432;28;20230;-81
2023/11/09 06:33:17;;;;;;;18.43;4.07;;;;;;;;;;5031605;28;20228;-81
2023/11/09 06:35:46;;;;;;;15.83;3.60;;;;;;;;;;5031913;28;20287;-80
2023/11/09 06:38:13;;;;;;;17.90;4.33;;;;;;;;;;5030421;28;20682;-81
2023/11/09 06:40:42;;;;;;;24.50;3.97;;;;;;;;;;5031348;28;20291;-82
2023/11/09 06:43:09;;;;;;;17.67;4.53;;;;;;;;;;5030427;28;20610;-84
2023/11/09 06:45:37;;;;;;;17.83;4.23;;;;;;;;;;5031461;28;20203;-81
2023/11/09 06:48:04;;;;;;;23.50;4.30;;;;;;;;;;5031259;28;20669;-82
2023/11/09 06:50:32;;;;;;;17.13;4.13;;;;;;;;;;5031290;28;20204;-81
2023/11/09 06:53:00;;;;;;;22.87;3.83;;;;;;;;;;5031389;28;20197;-82
2023/11/09 06:55:28;;;;;;;16.77;3.40;;;;;;;;;;5031177;28;20757;-82
2023/11/09 06:57:57;;;;;;;19.73;4.17;;;;;;;;;;5030850;28;20231;-84
2023/11/09 07:00:24;;;;;;;18.37;3.57;;;;;;;;;;5030843;28;20232;-82
2023/11/09 07:02:51;;;;;;;18.10;3.77;;;;;;;;;;5031815;28;20251;-83
2023/11/09 07:05:22;;;;;;;23.03;3.87;;;;;;;;;;5031179;28;20204;-82
2023/11/09 07:07:50;;;;;;;21.30;3.43;;;;;;;;;;5030976;28;20197;-82
2023/11/09 07:10:18;;;;;;;13.73;3.03;;;;;;;;;;5034438;28;20204;-83
2023/11/09 07:12:45;;;;;;;16.10;3.80;;;;;;;;;;5034758;28;20291;-82
2023/11/09 07:15:14;;;;;;;14.87;3.57;;;;;;;;;;5034765;28;20287;-82
2023/11/09 07:17:41;;;;;;;18.17;3.10;;;;;;;;;;5034670;28;20227;-82
2023/11/09 07:20:10;;;;;;;16.40;2.80;;;;;;;;;;5034495;28;20291;-82
2023/11/09 07:22:38;;;;;;;13.17;2.97;;;;;;;;;;5034516;28;20196;-82
2023/11/09 07:25:08;;;;;;;13.27;3.07;;;;;;;;;;5034384;28;20197;-82
2023/11/09 07:27:35;;;;;;;15.07;2.87;;;;;;;;;;5034285;28;20572;-82
2023/11/09 07:30:03;;;;;;;13.27;3.13;;;;;;;;;;5034099;28;20758;-82
2023/11/09 07:32:32;;;;;;;12.33;3.00;;;;;;;;;;5034403;28;20669;-84
2023/11/09 07:34:59;;;;;;;12.70;2.73;;;;;;;;;;5033533;28;20204;-84
2023/11/09 07:37:27;;;;;;;13.27;2.83;;;;;;;;;;5034534;28;20315;-84
2023/11/09 07:39:54;;;;;;;14.43;2.53;;;;;;;;;;5033995;28;20201;-84
2023/11/09 07:42:22;;;;;;;7.70;2.47;;;;;;;;;;5033322;28;20785;-84
2023/11/09 07:44:50;;;;;;;11.43;2.67;;;;;;;;;;5034481;28;20196;-85
2023/11/09 07:47:18;;;;;;;10.50;2.37;;;;;;;;;;5034162;28;20235;-84
2023/11/09 07:49:47;;;;;;;13.20;2.73;;;;;;;;;;5033695;28;20280;-85
2023/11/09 07:52:14;;;;;;;8.97;2.80;;;;;;;;;;5033749;28;20201;-85
2023/11/09 07:54:43;;;;;;;11.60;2.23;;;;;;;;;;5033543;28;20571;-84
2023/11/09 07:57:11;;;;;;;9.97;2.63;;;;;;;;;;5033965;28;20231;-83
2023/11/09 07:59:39;;;;;;;11.70;2.50;;;;;;;;;;5033936;28;20212;-84
2023/11/09 08:02:07;;;;;;;14.63;3.40;;;;;;;;;;5033891;28;20200;-84
2023/11/09 08:04:34;;;;;;;15.53;3.47;;;;;;;;;;5033482;28;20213;-83
2023/11/09 08:07:04;;;;;;;9.93;2.30;;;;;;;;;;5033394;28;20303;-83
2023/11/09 08:09:32;;;;;;;13.30;2.37;;;;;;;;;;5033190;28;20243;-83
2023/11/09 08:12:00;;;;;;;12.37;2.47;;;;;;;;;;5033468;28;20288;-83
2023/11/09 08:14:27;;;;;;;9.90;2.53;;;;;;;;;;5033614;28;20200;-84
2023/11/09 08:16:55;;;;;;;10.60;2.30;;;;;;;;;;5033680;28;20203;-83
2023/11/09 08:19:22;;;;;;;9.97;2.67;;;;;;;;;;5032949;28;20228;-83
2023/11/09 08:21:49;;;;;;;9.77;2.70;;;;;;;;;;5032056;28;20756;-83
2023/11/09 08:24:18;;;;;;;11.47;2.70;;;;;;;;;;5032691;28;20292;-83
2023/11/09 08:26:46;;;;;;;10.50;2.33;;;;;;;;;;5033350;28;20280;-84
2023/11/09 08:29:13;;;;;;;14.20;3.97;;;;;;;;;;5033310;28;20200;-83
2023/11/09 08:31:41;;;;;;;13.30;3.23;;;;;;;;;;5032840;28;20323;-83
2023/11/09 08:34:09;;;;;;;6.23;2.40;;;;;;;;;;5032769;28;20232;-84
2023/11/09 08:36:36;;;;;;;9.97;2.80;;;;;;;;;;5033238;28;20196;-83
2023/11/09 08:39:03;;;;;;;9.80;2.27;;;;;;;;;;5032902;28;20264;-83
2023/11/09 08:41:32;;;;;;;11.77;3.30;;;;;;;;;;5033356;28;20200;-83
2023/11/09 08:43:59;;;;;;;11.53;2.40;;;;;;;;;;5032989;28;20228;-83
2023/11/09 08:46:28;;;;;;;8.43;2.53;;;;;;;;;;5032837;28;20283;-83
2023/11/09 08:48:55;;;;;;;11.73;2.60;;;;;;;;;;5032530;28;20262;-83
2023/11/09 08:51:22;;;;;;;11.10;2.67;;;;;;;;;;5032653;28;20228;-84
2023/11/09 08:53:49;;;;;;;13.97;2.97;;;;;;;;;;5032428;28;20288;-84
2023/11/09 08:56:17;;;;;;;13.83;3.20;;;;;;;;;;5032782;28;20588;-82
2023/11/09 08:58:48;;;;;;;14.93;3.57;;;;;;;;;;5032569;28;20282;-81
2023/11/09 09:01:18;;;;;;;9.73;3.30;;;;;;;;;;5032588;28;20208;-82
2023/11/09 09:03:46;;;;;;;12.90;3.27;;;;;;;;;;5031880;28;20193;-84
2023/11/09 09:06:17;;;;;;;13.80;3.23;;;;;;;;;;5032398;28;20197;-81
2023/11/09 09:08:45;;;;;;;13.80;5.10;;;;;;;;;;5032234;28;20197;-82
2023/11/09 09:11:14;;;;;;;13.53;3.43;;;;;;;;;;5032855;28;20200;-84
2023/11/09 09:13:41;;;;;;;10.83;2.97;;;;;;;;;;5032341;28;20202;-82
2023/11/09 09:16:12;;;;;;;11.20;2.53;;;;;;;;;;5032441;28;20240;-83
2023/11/09 09:18:39;;;;;;;10.53;2.40;;;;;;;;;;5031885;28;20232;-83
2023/11/09 09:21:08;;;;;;;9.47;2.23;;;;;;;;;;5031962;28;20567;-85
2023/11/09 09:23:36;;;;;;;9.27;2.00;;;;;;;;;;5032157;28;20200;-85
2023/11/09 09:26:04;;;;;;;10.60;2.60;;;;;;;;;;5032304;28;20196;-84
2023/11/09 09:28:34;;;;;;;7.03;1.57;;;;;;;;;;5032075;28;20677;-85
2023/11/09 09:31:03;;;;;;;10.53;2.77;;;;;;;;;;5031237;28;20228;-85
2023/11/09 09:33:31;;;;;;;6.87;1.90;;;;;;;;;;5031982;28;20700;-85
2023/11/09 09:35:59;;;;;;;6.30;1.80;;;;;;;;;;5032360;28;20814;-82
2023/11/09 09:38:26;;;;;;;8.77;1.73;;;;;;;;;;5031940;28;20232;-85
2023/11/09 09:40:54;;;;;;;10.00;1.93;;;;;;;;;;5031928;28;20768;-85
2023/11/09 09:43:23;;;;;;;11.30;2.27;;;;;;;;;;5031527;28;20201;-85
2023/11/09 09:45:56;;;;;;;8.87;1.90;;;;;;;;;;5031715;28;20988;-84
2023/11/09 09:48:25;;;;;;;9.50;2.63;;;;;;;;;;5031880;28;20291;-85
2023/11/09 09:50:55;;;;;;;7.43;1.80;;;;;;;;;;5032036;28;20206;-84
2023/11/09 09:53:26;;;;;;;9.13;2.23;;;;;;;;;;5031900;28;20192;-85
2023/11/09 09:55:54;;;;;;;11.83;2.63;;;;;;;;;;5031934;28;20222;-84
2023/11/09 09:58:21;;;;;;;12.17;2.70;;;;;;;;;;5031672;28;20255;-82
2023/11/09 10:00:50;;;;;;;9.53;2.50;;;;;;;;;;5031679;28;20656;-84
2023/11/09 10:03:17;;;;;;;6.33;1.87;;;;;;;;;;5031608;28;20736;-84
2023/11/09 10:05:46;;;;;;;6.50;1.92;;;;;;;;;;5031611;28;20279;-82
2023/11/09 10:08:15;;;;;;;7.80;1.75;;;;;;;;;;5031358;28;20562;-81
2023/11/09 10:10:44;;;;;;;7.53;1.75;;;;;;;;;;5031684;28;20223;-84
2023/11/09 10:13:13;;;;;;;9.00;1.73;;;;;;;;;;5031425;28;20200;-84
2023/11/09 10:15:41;;;;;;;10.10;2.00;;;;;;;;;;5031288;28;20242;-82
2023/11/09 10:18:09;;;;;;;8.57;2.60;;;;;;;;;;5031343;28;20283;-82
2023/11/09 10:20:37;;;;;;;6.75;1.60;;;;;;;;;;5031309;28;20196;-82
2023/11/09 10:23:05;;;;;;;8.45;1.88;;;;;;;;;;5031304;28;20615;-81
2023/11/09 10:25:36;;;;;;;10.38;2.20;;;;;;;;;;5031717;28;20291;-83
2023/11/09 10:28:07;;;;;;;7.07;2.13;;;;;;;;;;5031846;28;20299;-82
2023/11/09 10:30:37;;;;;;;8.93;2.15;;;;;;;;;;5030922;28;20640;-85
2023/11/09 10:33:07;;;;;;;9.40;1.53;;;;;;;;;;5031558;28;20243;-84
2023/11/09 10:35:34;;;;;;;10.53;1.90;;;;;;;;;;5031322;28;20201;-85
2023/11/09 10:38:02;;;;;;;6.93;1.30;;;;;;;;;;5031867;28;20216;-85
2023/11/09 10:40:31;;;;;;;10.67;2.50;;;;;;;;;;5031476;28;20216;-86
2023/11/09 10:43:01;;;;;;;10.23;2.27;;;;;;;;;;5031302;28;20571;-84
2023/11/09 10:45:30;;;;;;;7.33;2.20;;;;;;;;;;5034895;28;20200;-84
2023/11/09 10:48:00;;;;;;;5.93;1.97;;;;;;;;;;5035263;28;20196;-83
2023/11/09 10:50:28;;;;;;;7.50;1.43;;;;;;;;;;5034658;28;20197;-85
2023/11/09 10:52:57;;;;;;;5.47;1.57;;;;;;;;;;5035516;28;20196;-87
2023/11/09 10:55:25;;;;;;;5.60;1.30;;;;;;;;;;5035787;28;20680;-84
2023/11/09 10:57:54;;;;;;;7.73;1.80;;;;;;;;;;5036581;28;20201;-89
2023/11/09 11:00:32;;;;;;;7.77;1.57;;;;;;;;;;5036227;28;20239;-85
2023/11/09 11:03:07;;;;;;;7.00;1.57;;;;;;;;;;5034811;28;20200;-84
2023/11/09 11:05:37;;;;;;;6.87;2.03;;;;;;;;;;5035124;28;20195;-84
2023/11/09 11:08:06;;;;;;;12.87;2.37;;;;;;;;;;5034747;28;20196;-85
2023/11/09 11:10:34;;;;;;;5.77;2.00;;;;;;;;;;5034718;28;20216;-83
2023/11/09 11:13:04;;;;;;;10.57;2.43;;;;;;;;;;5034453;28;20813;-84
2023/11/09 11:15:37;;;;;;;7.10;2.23;;;;;;;;;;5034820;28;20570;-88
2023/11/09 11:18:09;;;;;;;6.50;2.00;;;;;;;;;;5035564;28;20196;-88
2023/11/09 11:20:57;;;;;;;8.47;1.30;;;;;;;;;;5035132;28;20232;-86
2023/11/09 11:23:40;;;;;;;8.10;1.67;;;;;;;;;;5035033;28;20203;-87
2023/11/09 11:26:10;;;;;;;9.47;1.80;;;;;;;;;;5034952;28;20207;-86
2023/11/09 11:28:38;;;;;;;4.87;1.20;;;;;;;;;;5034757;28;20291;-86
2023/11/09 11:31:08;;;;;;;7.77;1.27;;;;;;;;;;5034675;28;20708;-82
2023/11/09 11:33:36;;;;;;;6.63;1.20;;;;;;;;;;5034342;28;20216;-86
2023/11/09 11:36:05;;;;;;;7.03;1.30;;;;;;;;;;5034526;28;20196;-85
2023/11/09 11:38:35;;;;;;;5.90;1.17;;;;;;;;;;5034535;28;20258;-85
2023/11/09 11:41:02;;;;;;;6.50;1.50;;;;;;;;;;5034357;28;20650;-86
2023/11/09 11:43:39;;;;;;;4.97;2.07;;;;;;;;;;5033960;28;20204;-85
2023/11/09 11:46:11;;;;;;;7.70;2.20;;;;;;;;;;5034396;28;20203;-86
2023/11/09 11:48:42;;;;;;;5.13;1.70;;;;;;;;;;5034082;28;20288;-85
2023/11/09 11:51:10;;;;;;;4.53;1.07;;;;;;;;;;5033995;28;20225;-85
2023/11/09 11:53:40;;;;;;;4.97;1.37;;;;;;;;;;5034585;28;20630;-86
2023/11/09 11:56:10;;;;;;;6.50;1.40;;;;;;;;;;5033698;28;20227;-87
2023/11/09 11:58:46;;;;;;;8.50;1.60;;;;;;;;;;5033770;28;20208;-85
2023/11/09 12:01:21;;;;;;;6.33;1.30;;;;;;;;;;5033882;28;20203;-86
2023/11/09 12:03:50;;;;;;;4.57;1.30;;;;;;;;;;5034024;28;20199;-86
2023/11/09 12:06:20;;;;;;;4.87;1.30;;;;;;;;;;5033704;28;20200;-85
2023/11/09 12:08:49;;;;;;;6.70;1.30;;;;;;;;;;5034277;28;20203;-85
2023/11/09 12:11:17;;;;;;;6.73;2.00;;;;;;;;;;5033270;28;20232;-85
2023/11/09 12:13:46;;;;;;;4.40;1.33;;;;;;;;;;5034223;28;20295;-85
2023/11/09 12:16:16;;;;;;;5.30;1.53;;;;;;;;;;5033889;28;20200;-86
2023/11/09 12:18:47;;;;;;;6.70;1.50;;;;;;;;;;5033408;28;20283;-86
2023/11/09 12:21:17;;;;;;;4.60;1.47;;;;;;;;;;5033809;28;20268;-86
2023/11/09 12:23:50;;;;;;;3.23;1.40;;;;;;;;;;5033562;28;20201;-87
2023/11/09 12:26:19;;;;;;;5.23;1.50;;;;;;;;;;5033249;28;20192;-86
2023/11/09 12:28:47;;;;;;;8.40;1.87;;;;;;;;;;5033828;28;20207;-85
2023/11/09 12:31:15;;;;;;;6.90;2.33;;;;;;;;;;5033448;28;20275;-85
2023/11/09 12:33:43;;;;;;;6.77;2.03;;;;;;;;;;5033422;28;20224;-85
2023/11/09 12:36:11;;;;;;;7.40;2.10;;;;;;;;;;5033433;28;20232;-85
2023/11/09 12:38:40;;;;;;;4.00;1.63;;;;;;;;;;5033450;28;20282;-86
2023/11/09 12:41:07;;;;;;;3.27;1.53;;;;;;;;;;5032364;28;20201;-85
2023/11/09 12:43:36;;;;;;;6.23;1.97;;;;;;;;;;5033454;28;20200;-87
2023/11/09 12:46:08;;;;;;;8.40;1.50;;;;;;;;;;5033266;28;20197;-83
2023/11/09 12:48:43;;;;;;;4.60;1.52;;;;;;;;;;5032806;28;20200;-83
2023/11/09 12:51:14;;;;;;;4.10;1.20;;;;;;;;;;5032983;28;20290;-85
2023/11/09 12:53:43;;;;;;;8.38;1.55;;;;;;;;;;5033221;28;20208;-85
2023/11/09 12:56:11;;;;;;;7.80;2.03;;;;;;;;;;5032675;28;20207;-85
2023/11/09 12:58:40;;;;;;;6.90;1.70;;;;;;;;;;5032787;28;20211;-85
2023/11/09 13:01:14;;;;;;;5.47;1.30;;;;;;;;;;5033219;28;20268;-85
2023/11/09 13:03:42;;;;;;;4.53;1.05;;;;;;;;;;5032406;28;20202;-85
2023/11/09 13:06:12;;;;;;;6.82;1.38;;;;;;;;;;5032079;28;20196;-85
2023/11/09 13:08:41;;;;;;;3.15;1.20;;;;;;;;;;5032509;28;20197;-85
2023/11/09 13:11:12;;;;;;;5.73;1.10;;;;;;;;;;5032551;28;20637;-85
2023/11/09 13:13:41;;;;;;;5.13;0.90;;;;;;;;;;5032306;28;20197;-86
2023/11/09 13:16:15;;;;;;;3.03;0.77;;;;;;;;;;5032473;28;20235;-82
2023/11/09 13:18:42;;;;;;;3.50;0.90;;;;;;;;;;5032783;28;20291;-85
2023/11/09 13:21:15;;;;;;;4.45;1.00;;;;;;;;;;5032439;28;20232;-85
2023/11/09 13:23:47;;;;;;;4.53;1.17;;;;;;;;;;5032010;28;20223;-85
2023/11/09 13:26:22;;;;;;;5.30;1.33;;;;;;;;;;5032267;28;20280;-85
2023/11/09 13:28:49;;;;;;;4.03;1.08;;;;;;;;;;5032366;28;20215;-85
2023/11/09 13:31:23;;;;;;;6.78;1.27;;;;;;;;;;5031985;28;20335;-85
2023/11/09 13:33:51;;;;;;;5.43;0.73;;;;;;;;;;5032105;28;20197;-83
2023/11/09 13:36:29;;;;;;;4.40;1.00;;;;;;;;;;5032317;28;20628;-82
2023/11/09 13:39:33;;;;;;;6.00;1.20;;;;;;;;;;5031624;28;20196;-84
2023/11/09 13:42:00;;;;;;;5.23;1.23;;;;;;;;;;5031630;28;20204;-84
2023/11/09 13:44:27;;;;;;;6.35;1.20;;;;;;;;;;5031713;28;20737;-85
2023/11/09 13:46:59;;;;;;;5.07;1.15;;;;;;;;;;5032212;28;20287;-84
2023/11/09 13:49:29;;;;;;;7.75;1.65;;;;;;;;;;5031770;28;20200;-85
2023/11/09 13:52:13;;;;;;;6.70;1.30;;;;;;;;;;5031893;28;20200;-84
2023/11/09 13:54:47;;;;;;;4.10;1.33;;;;;;;;;;5032345;28;20270;-84
2023/11/09 13:57:22;;;;;;;6.00;1.30;;;;;;;;;;5031813;28;20191;-82
2023/11/09 13:59:59;;;;;;;3.83;1.20;;;;;;;;;;5031650;28;20243;-82
2023/11/09 14:02:29;;;;;;;4.72;1.27;;;;;;;;;;5031757;28;20257;-83
2023/11/09 14:05:03;;;;;;;4.18;0.93;;;;;;;;;;5032009;28;20242;-85
2023/11/09 14:07:33;;;;;;;4.25;0.95;;;;;;;;;;5031325;28;20203;-84
2023/11/09 14:10:04;;;;;;;5.05;1.10;;;;;;;;;;5031326;28;20686;-81
2023/11/09 14:12:38;;;;;;;6.03;1.42;;;;;;;;;;5031212;28;20575;-83
2023/11/09 14:15:19;;;;;;;2.10;0.93;;;;;;;;;;5031295;28;20200;-85
2023/11/09 14:17:50;;;;;;;5.67;1.30;;;;;;;;;;5032696;28;20204;-82
2023/11/09 14:20:30;;;;;;;6.90;1.10;;;;;;;;;;5036027;28;20256;-85
2023/11/09 14:22:57;;;;;;;6.70;1.30;;;;;;;;;;5035268;28;20196;-84
2023/11/09 14:25:26;;;;;;;4.17;1.20;;;;;;;;;;5035700;28;20290;-85
2023/11/09 14:27:53;;;;;;;5.63;1.70;;;;;;;;;;5035455;28;20200;-85
2023/11/09 14:30:28;;;;;;;5.40;1.87;;;;;;;;;;5035124;28;20905;-84
2023/11/09 14:33:00;;;;;;;6.20;1.47;;;;;;;;;;5035325;28;20270;-85
2023/11/09 14:35:27;;;;;;;6.53;1.67;;;;;;;;;;5034530;28;20627;-84
2023/11/09 14:37:55;;;;;;;6.70;1.27;;;;;;;;;;5035509;28;20287;-85
2023/11/09 14:40:24;;;;;;;6.63;1.63;;;;;;;;;;5035509;28;20318;-83
2023/11/09 14:42:53;;;;;;;7.30;2.17;;;;;;;;;;5035695;28;20656;-85
2023/11/09 14:45:23;;;;;;;8.20;1.90;;;;;;;;;;5035272;28;20220;-85
2023/11/09 14:47:51;;;;;;;6.63;1.63;;;;;;;;;;5034908;28;20228;-85
2023/11/09 14:50:20;;;;;;;3.83;1.30;;;;;;;;;;5035181;28;20283;-85